sensor_id;sensor_type;location;lat;lon;timestamp;temperature;humidity
13446;DHT22;6795;51.232;3.764;2023-02-01T00:01:30;5.50;99.90
13446;DHT22;6795;51.232;3.764;2023-02-01T00:03:58;5.50;99.90
13446;DHT22;6795;51.232;3.764;2023-02-01T00:06:27;5.40;99.90
13446;DHT22;6795;51.232;3.764;2023-02-01T00:08:55;5.40;99.90
13446;DHT22;6795;51.232;3.764;2023-02-01T00:11:24;5.40;99.90
13446;DHT22;6795;51.232;3.764;2023-02-01T00:13:53;5.40;99.90
13446;DHT22;6795;51.232;3.764;2023-02-01T00:16:23;5.40;99.90
13446;DHT22;6795;51.232;3.764;2023-02-01T00:18:58;5.40;99.90
13446;DHT22;6795;51.232;3.764;2023-02-01T00:21:27;5.40;99.90
13446;DHT22;6795;51.232;3.764;2023-02-01T00:23:56;5.40;99.90
13446;DHT22;6795;51.232;3.764;2023-02-01T00:26:30;5.40;99.90
13446;DHT22;6795;51.232;3.764;2023-02-01T00:28:59;5.30;99.90
13446;DHT22;6795;51.232;3.764;2023-02-01T00:31:28;5.30;99.90
13446;DHT22;6795;51.232;3.764;2023-02-01T00:33:59;5.40;99.90
13446;DHT22;6795;51.232;3.764;2023-02-01T00:36:28;5.40;99.90
13446;DHT22;6795;51.232;3.764;2023-02-01T00:38:57;5.40;99.90
13446;DHT22;6795;51.232;3.764;2023-02-01T00:41:26;5.40;99.90
13446;DHT22;6795;51.232;3.764;2023-02-01T00:43:54;5.30;99.90
13446;DHT22;6795;51.232;3.764;2023-02-01T00:46:23;5.30;99.90
13446;DHT22;6795;51.232;3.764;2023-02-01T00:48:52;5.30;99.90
13446;DHT22;6795;51.232;3.764;2023-02-01T00:51:25;5.10;99.90
13446;DHT22;6795;51.232;3.764;2023-02-01T00:53:53;5.00;99.90
13446;DHT22;6795;51.232;3.764;2023-02-01T00:56:22;4.90;99.90
13446;DHT22;6795;51.232;3.764;2023-02-01T00:58:50;5.00;99.90
13446;DHT22;6795;51.232;3.764;2023-02-01T01:01:21;4.90;99.90
13446;DHT22;6795;51.232;3.764;2023-02-01T01:03:51;4.90;99.90
13446;DHT22;6795;51.232;3.764;2023-02-01T01:06:24;5.00;99.90
13446;DHT22;6795;51.232;3.764;2023-02-01T01:08:53;5.10;99.90
13446;DHT22;6795;51.232;3.764;2023-02-01T01:11:23;5.10;99.90
13446;DHT22;6795;51.232;3.764;2023-02-01T01:13:54;5.00;99.90
13446;DHT22;6795;51.232;3.764;2023-02-01T01:16:24;4.90;99.90
13446;DHT22;6795;51.232;3.764;2023-02-01T01:18:53;4.80;99.90
13446;DHT22;6795;51.232;3.764;2023-02-01T01:21:24;4.80;99.90
13446;DHT22;6795;51.232;3.764;2023-02-01T01:23:52;4.80;99.90
13446;DHT22;6795;51.232;3.764;2023-02-01T01:26:22;4.80;99.90
13446;DHT22;6795;51.232;3.764;2023-02-01T01:28:51;4.70;99.90
13446;DHT22;6795;51.232;3.764;2023-02-01T01:31:21;4.70;99.90
13446;DHT22;6795;51.232;3.764;2023-02-01T01:33:51;4.80;99.90
13446;DHT22;6795;51.232;3.764;2023-02-01T01:36:20;4.80;99.90
13446;DHT22;6795;51.232;3.764;2023-02-01T01:38:50;4.80;99.90
13446;DHT22;6795;51.232;3.764;2023-02-01T01:41:20;4.90;99.90
13446;DHT22;6795;51.232;3.764;2023-02-01T01:43:52;4.90;99.90
13446;DHT22;6795;51.232;3.764;2023-02-01T01:46:23;4.90;99.90
13446;DHT22;6795;51.232;3.764;2023-02-01T01:48:58;4.90;99.90
13446;DHT22;6795;51.232;3.764;2023-02-01T01:51:28;5.00;99.90
13446;DHT22;6795;51.232;3.764;2023-02-01T01:54:03;5.00;99.90
13446;DHT22;6795;51.232;3.764;2023-02-01T01:56:33;5.10;99.90
13446;DHT22;6795;51.232;3.764;2023-02-01T01:59:03;5.00;99.90
13446;DHT22;6795;51.232;3.764;2023-02-01T02:01:33;5.00;99.90
13446;DHT22;6795;51.232;3.764;2023-02-01T02:04:03;5.00;99.90
13446;DHT22;6795;51.232;3.764;2023-02-01T02:06:40;5.10;99.90
13446;DHT22;6795;51.232;3.764;2023-02-01T02:09:14;5.20;99.90
13446;DHT22;6795;51.232;3.764;2023-02-01T02:11:43;5.20;99.90
13446;DHT22;6795;51.232;3.764;2023-02-01T02:14:14;5.10;99.90
13446;DHT22;6795;51.232;3.764;2023-02-01T02:17:01;5.10;99.90
13446;DHT22;6795;51.232;3.764;2023-02-01T02:22:52;5.20;99.90
13446;DHT22;6795;51.232;3.764;2023-02-01T02:25:52;5.30;99.90
13446;DHT22;6795;51.232;3.764;2023-02-01T02:29:06;5.30;99.90
13446;DHT22;6795;51.232;3.764;2023-02-01T02:32:22;5.30;99.90
13446;DHT22;6795;51.232;3.764;2023-02-01T02:34:56;5.40;99.90
13446;DHT22;6795;51.232;3.764;2023-02-01T02:37:30;5.40;99.90
13446;DHT22;6795;51.232;3.764;2023-02-01T02:40:10;5.50;99.90
13446;DHT22;6795;51.232;3.764;2023-02-01T02:42:45;5.60;99.90
13446;DHT22;6795;51.232;3.764;2023-02-01T02:45:40;5.70;99.90
13446;DHT22;6795;51.232;3.764;2023-02-01T02:48:30;5.80;99.90
13446;DHT22;6795;51.232;3.764;2023-02-01T02:51:07;5.80;99.90
13446;DHT22;6795;51.232;3.764;2023-02-01T02:53:58;5.80;99.90
13446;DHT22;6795;51.232;3.764;2023-02-01T02:56:46;5.90;99.90
13446;DHT22;6795;51.232;3.764;2023-02-01T02:59:33;5.90;99.90
13446;DHT22;6795;51.232;3.764;2023-02-01T03:02:21;5.90;99.90
13446;DHT22;6795;51.232;3.764;2023-02-01T03:05:07;5.80;99.90
13446;DHT22;6795;51.232;3.764;2023-02-01T03:08:04;5.80;99.90
13446;DHT22;6795;51.232;3.764;2023-02-01T03:10:41;5.80;99.90
13446;DHT22;6795;51.232;3.764;2023-02-01T03:13:13;5.80;99.90
13446;DHT22;6795;51.232;3.764;2023-02-01T03:15:47;5.80;99.90
13446;DHT22;6795;51.232;3.764;2023-02-01T03:18:22;5.90;99.90
13446;DHT22;6795;51.232;3.764;2023-02-01T03:20:55;5.80;99.90
13446;DHT22;6795;51.232;3.764;2023-02-01T03:23:31;5.70;99.90
13446;DHT22;6795;51.232;3.764;2023-02-01T03:26:03;5.80;99.90
13446;DHT22;6795;51.232;3.764;2023-02-01T03:28:34;5.80;99.90
13446;DHT22;6795;51.232;3.764;2023-02-01T03:31:04;5.80;99.90
13446;DHT22;6795;51.232;3.764;2023-02-01T03:33:33;5.80;99.90
13446;DHT22;6795;51.232;3.764;2023-02-01T03:36:20;5.70;99.90
13446;DHT22;6795;51.232;3.764;2023-02-01T03:39:00;5.70;99.90
13446;DHT22;6795;51.232;3.764;2023-02-01T03:41:35;5.70;99.90
13446;DHT22;6795;51.232;3.764;2023-02-01T03:44:12;5.60;99.90
13446;DHT22;6795;51.232;3.764;2023-02-01T03:46:46;5.60;99.90
13446;DHT22;6795;51.232;3.764;2023-02-01T03:49:21;5.50;99.90
13446;DHT22;6795;51.232;3.764;2023-02-01T03:51:52;5.60;99.90
13446;DHT22;6795;51.232;3.764;2023-02-01T03:54:22;5.60;99.90
13446;DHT22;6795;51.232;3.764;2023-02-01T03:56:54;5.50;99.90
13446;DHT22;6795;51.232;3.764;2023-02-01T03:59:23;5.60;99.90
13446;DHT22;6795;51.232;3.764;2023-02-01T04:01:52;5.50;99.90
13446;DHT22;6795;51.232;3.764;2023-02-01T04:04:21;5.60;99.90
13446;DHT22;6795;51.232;3.764;2023-02-01T04:06:49;5.70;99.90
13446;DHT22;6795;51.232;3.764;2023-02-01T04:09:18;5.70;99.90
13446;DHT22;6795;51.232;3.764;2023-02-01T04:11:48;5.70;99.90
13446;DHT22;6795;51.232;3.764;2023-02-01T04:14:17;5.70;99.90
13446;DHT22;6795;51.232;3.764;2023-02-01T04:16:45;5.70;99.90
13446;DHT22;6795;51.232;3.764;2023-02-01T04:19:14;5.70;99.90
13446;DHT22;6795;51.232;3.764;2023-02-01T04:21:43;5.80;99.90
13446;DHT22;6795;51.232;3.764;2023-02-01T04:24:11;5.80;99.90
13446;DHT22;6795;51.232;3.764;2023-02-01T04:26:39;5.70;99.90
13446;DHT22;6795;51.232;3.764;2023-02-01T04:29:10;5.80;99.90
13446;DHT22;6795;51.232;3.764;2023-02-01T04:31:38;5.80;99.90
13446;DHT22;6795;51.232;3.764;2023-02-01T04:34:07;5.80;99.90
13446;DHT22;6795;51.232;3.764;2023-02-01T04:36:36;5.70;99.90
13446;DHT22;6795;51.232;3.764;2023-02-01T04:39:04;5.70;99.90
13446;DHT22;6795;51.232;3.764;2023-02-01T04:41:33;5.70;99.90
13446;DHT22;6795;51.232;3.764;2023-02-01T04:44:02;5.60;99.90
13446;DHT22;6795;51.232;3.764;2023-02-01T04:46:32;5.60;99.90
13446;DHT22;6795;51.232;3.764;2023-02-01T04:49:00;5.60;99.90
13446;DHT22;6795;51.232;3.764;2023-02-01T04:51:29;5.50;99.90
13446;DHT22;6795;51.232;3.764;2023-02-01T04:53:57;5.50;99.90
13446;DHT22;6795;51.232;3.764;2023-02-01T04:56:26;5.50;99.90
13446;DHT22;6795;51.232;3.764;2023-02-01T04:58:55;5.50;99.90
13446;DHT22;6795;51.232;3.764;2023-02-01T05:01:24;5.50;99.90
13446;DHT22;6795;51.232;3.764;2023-02-01T05:03:54;5.50;99.90
13446;DHT22;6795;51.232;3.764;2023-02-01T05:06:23;5.40;99.90
13446;DHT22;6795;51.232;3.764;2023-02-01T05:08:51;5.40;99.90
13446;DHT22;6795;51.232;3.764;2023-02-01T05:11:20;5.30;99.90
13446;DHT22;6795;51.232;3.764;2023-02-01T05:14:06;5.30;99.90
13446;DHT22;6795;51.232;3.764;2023-02-01T05:16:34;5.20;99.90
13446;DHT22;6795;51.232;3.764;2023-02-01T05:19:04;5.20;99.90
13446;DHT22;6795;51.232;3.764;2023-02-01T05:21:33;5.30;99.90
13446;DHT22;6795;51.232;3.764;2023-02-01T05:24:02;5.20;99.90
13446;DHT22;6795;51.232;3.764;2023-02-01T05:26:43;5.20;99.90
13446;DHT22;6795;51.232;3.764;2023-02-01T05:29:12;5.30;99.90
13446;DHT22;6795;51.232;3.764;2023-02-01T05:31:40;5.30;99.90
13446;DHT22;6795;51.232;3.764;2023-02-01T05:34:10;5.40;99.90
13446;DHT22;6795;51.232;3.764;2023-02-01T05:36:39;5.40;99.90
13446;DHT22;6795;51.232;3.764;2023-02-01T05:39:08;5.50;99.90
13446;DHT22;6795;51.232;3.764;2023-02-01T05:41:37;5.40;99.90
13446;DHT22;6795;51.232;3.764;2023-02-01T05:44:05;5.50;99.90
13446;DHT22;6795;51.232;3.764;2023-02-01T05:46:35;5.50;99.90
13446;DHT22;6795;51.232;3.764;2023-02-01T05:49:03;5.60;99.90
13446;DHT22;6795;51.232;3.764;2023-02-01T05:51:33;5.60;99.90
13446;DHT22;6795;51.232;3.764;2023-02-01T05:54:02;5.50;99.90
13446;DHT22;6795;51.232;3.764;2023-02-01T05:56:31;5.50;99.90
13446;DHT22;6795;51.232;3.764;2023-02-01T05:58:59;5.60;99.90
13446;DHT22;6795;51.232;3.764;2023-02-01T06:01:30;5.70;99.90
13446;DHT22;6795;51.232;3.764;2023-02-01T06:03:59;5.70;99.90
13446;DHT22;6795;51.232;3.764;2023-02-01T06:06:27;5.80;99.90
13446;DHT22;6795;51.232;3.764;2023-02-01T06:08:57;5.70;99.90
13446;DHT22;6795;51.232;3.764;2023-02-01T06:11:28;5.70;99.90
13446;DHT22;6795;51.232;3.764;2023-02-01T06:13:59;5.60;99.90
13446;DHT22;6795;51.232;3.764;2023-02-01T06:16:28;5.60;99.90
13446;DHT22;6795;51.232;3.764;2023-02-01T06:18:56;5.60;99.90
13446;DHT22;6795;51.232;3.764;2023-02-01T06:21:25;5.60;99.90
13446;DHT22;6795;51.232;3.764;2023-02-01T06:23:54;5.60;99.90
13446;DHT22;6795;51.232;3.764;2023-02-01T06:26:26;5.60;99.90
13446;DHT22;6795;51.232;3.764;2023-02-01T06:28:55;5.60;99.90
13446;DHT22;6795;51.232;3.764;2023-02-01T06:31:24;5.70;99.90
13446;DHT22;6795;51.232;3.764;2023-02-01T06:33:53;5.80;99.90
13446;DHT22;6795;51.232;3.764;2023-02-01T06:36:22;5.80;99.90
13446;DHT22;6795;51.232;3.764;2023-02-01T06:38:50;5.90;99.90
13446;DHT22;6795;51.232;3.764;2023-02-01T06:41:19;5.90;99.90
13446;DHT22;6795;51.232;3.764;2023-02-01T06:43:50;5.90;99.90
13446;DHT22;6795;51.232;3.764;2023-02-01T06:46:18;5.90;99.90
13446;DHT22;6795;51.232;3.764;2023-02-01T06:48:46;5.90;99.90
13446;DHT22;6795;51.232;3.764;2023-02-01T06:51:21;5.90;99.90
13446;DHT22;6795;51.232;3.764;2023-02-01T06:53:49;5.90;99.90
13446;DHT22;6795;51.232;3.764;2023-02-01T06:56:18;5.90;99.90
13446;DHT22;6795;51.232;3.764;2023-02-01T06:58:48;5.90;99.90
13446;DHT22;6795;51.232;3.764;2023-02-01T07:01:18;5.90;99.90
13446;DHT22;6795;51.232;3.764;2023-02-01T07:03:50;5.90;99.90
13446;DHT22;6795;51.232;3.764;2023-02-01T07:06:19;5.90;99.90
13446;DHT22;6795;51.232;3.764;2023-02-01T07:08:47;5.90;99.90
13446;DHT22;6795;51.232;3.764;2023-02-01T07:11:17;6.00;99.90
13446;DHT22;6795;51.232;3.764;2023-02-01T07:13:46;6.10;99.90
13446;DHT22;6795;51.232;3.764;2023-02-01T07:16:16;6.10;99.90
13446;DHT22;6795;51.232;3.764;2023-02-01T07:18:46;6.10;99.90
13446;DHT22;6795;51.232;3.764;2023-02-01T07:21:15;6.10;99.90
13446;DHT22;6795;51.232;3.764;2023-02-01T07:23:43;6.10;99.90
13446;DHT22;6795;51.232;3.764;2023-02-01T07:26:13;6.10;99.90
13446;DHT22;6795;51.232;3.764;2023-02-01T07:28:43;6.10;99.90
13446;DHT22;6795;51.232;3.764;2023-02-01T07:31:13;6.20;99.90
13446;DHT22;6795;51.232;3.764;2023-02-01T07:33:42;6.20;99.90
13446;DHT22;6795;51.232;3.764;2023-02-01T07:36:14;6.20;99.90
13446;DHT22;6795;51.232;3.764;2023-02-01T07:38:43;6.20;99.90
13446;DHT22;6795;51.232;3.764;2023-02-01T07:41:11;6.20;99.90
13446;DHT22;6795;51.232;3.764;2023-02-01T07:43:40;6.30;99.90
13446;DHT22;6795;51.232;3.764;2023-02-01T07:46:10;6.40;99.90
13446;DHT22;6795;51.232;3.764;2023-02-01T07:48:39;6.50;99.90
13446;DHT22;6795;51.232;3.764;2023-02-01T07:51:09;6.50;99.90
13446;DHT22;6795;51.232;3.764;2023-02-01T07:53:40;6.60;99.90
13446;DHT22;6795;51.232;3.764;2023-02-01T07:56:12;6.70;99.90
13446;DHT22;6795;51.232;3.764;2023-02-01T07:58:41;6.70;99.90
13446;DHT22;6795;51.232;3.764;2023-02-01T08:01:14;6.90;99.90
13446;DHT22;6795;51.232;3.764;2023-02-01T08:03:48;6.90;99.90
13446;DHT22;6795;51.232;3.764;2023-02-01T08:06:17;6.90;99.90
13446;DHT22;6795;51.232;3.764;2023-02-01T08:08:48;7.00;99.90
13446;DHT22;6795;51.232;3.764;2023-02-01T08:11:18;7.00;99.90
13446;DHT22;6795;51.232;3.764;2023-02-01T08:13:47;7.00;99.90
13446;DHT22;6795;51.232;3.764;2023-02-01T08:16:17;7.10;99.90
13446;DHT22;6795;51.232;3.764;2023-02-01T08:18:46;7.10;99.90
13446;DHT22;6795;51.232;3.764;2023-02-01T08:21:16;7.10;99.90
13446;DHT22;6795;51.232;3.764;2023-02-01T08:23:45;7.10;99.90
13446;DHT22;6795;51.232;3.764;2023-02-01T08:26:17;7.10;99.90
13446;DHT22;6795;51.232;3.764;2023-02-01T08:28:48;7.20;99.90
13446;DHT22;6795;51.232;3.764;2023-02-01T08:31:18;7.30;99.90
13446;DHT22;6795;51.232;3.764;2023-02-01T08:33:49;7.40;99.90
13446;DHT22;6795;51.232;3.764;2023-02-01T08:36:18;7.40;99.90
13446;DHT22;6795;51.232;3.764;2023-02-01T08:38:47;7.40;99.90
13446;DHT22;6795;51.232;3.764;2023-02-01T08:41:18;7.40;99.90
13446;DHT22;6795;51.232;3.764;2023-02-01T08:43:47;7.40;99.90
13446;DHT22;6795;51.232;3.764;2023-02-01T08:46:16;7.50;99.90
13446;DHT22;6795;51.232;3.764;2023-02-01T08:48:46;7.50;99.90
13446;DHT22;6795;51.232;3.764;2023-02-01T08:51:16;7.50;99.90
13446;DHT22;6795;51.232;3.764;2023-02-01T08:53:45;7.60;99.90
13446;DHT22;6795;51.232;3.764;2023-02-01T08:56:15;7.60;99.90
13446;DHT22;6795;51.232;3.764;2023-02-01T08:58:45;7.60;99.90
13446;DHT22;6795;51.232;3.764;2023-02-01T09:01:14;7.70;99.90
13446;DHT22;6795;51.232;3.764;2023-02-01T09:03:44;7.70;99.90
13446;DHT22;6795;51.232;3.764;2023-02-01T09:06:14;7.70;99.90
13446;DHT22;6795;51.232;3.764;2023-02-01T09:08:43;7.70;99.90
13446;DHT22;6795;51.232;3.764;2023-02-01T09:11:13;7.70;99.90
13446;DHT22;6795;51.232;3.764;2023-02-01T09:13:42;7.70;99.90
13446;DHT22;6795;51.232;3.764;2023-02-01T09:16:12;7.70;99.90
13446;DHT22;6795;51.232;3.764;2023-02-01T09:18:41;7.70;99.90
13446;DHT22;6795;51.232;3.764;2023-02-01T09:21:29;7.70;99.90
13446;DHT22;6795;51.232;3.764;2023-02-01T09:23:59;7.90;99.90
13446;DHT22;6795;51.232;3.764;2023-02-01T09:26:28;8.10;99.90
13446;DHT22;6795;51.232;3.764;2023-02-01T09:28:59;8.20;99.90
13446;DHT22;6795;51.232;3.764;2023-02-01T09:31:30;8.40;99.90
13446;DHT22;6795;51.232;3.764;2023-02-01T09:33:59;8.60;99.90
13446;DHT22;6795;51.232;3.764;2023-02-01T09:36:28;8.60;99.90
13446;DHT22;6795;51.232;3.764;2023-02-01T09:38:57;8.60;99.90
13446;DHT22;6795;51.232;3.764;2023-02-01T09:41:35;8.60;99.90
13446;DHT22;6795;51.232;3.764;2023-02-01T09:44:21;8.60;99.90
13446;DHT22;6795;51.232;3.764;2023-02-01T09:46:57;8.60;99.90
13446;DHT22;6795;51.232;3.764;2023-02-01T09:49:30;8.80;99.90
13446;DHT22;6795;51.232;3.764;2023-02-01T09:52:02;8.90;99.90
13446;DHT22;6795;51.232;3.764;2023-02-01T09:54:41;9.10;99.90
13446;DHT22;6795;51.232;3.764;2023-02-01T09:57:16;9.00;99.90
13446;DHT22;6795;51.232;3.764;2023-02-01T09:59:49;8.80;99.90
13446;DHT22;6795;51.232;3.764;2023-02-01T10:02:23;8.80;99.90
13446;DHT22;6795;51.232;3.764;2023-02-01T10:04:55;8.80;99.90
13446;DHT22;6795;51.232;3.764;2023-02-01T10:07:32;8.90;99.90
13446;DHT22;6795;51.232;3.764;2023-02-01T10:10:10;8.90;99.90
13446;DHT22;6795;51.232;3.764;2023-02-01T10:15:48;8.90;99.90
13446;DHT22;6795;51.232;3.764;2023-02-01T10:18:49;9.00;99.90
13446;DHT22;6795;51.232;3.764;2023-02-01T10:21:28;9.20;99.90
13446;DHT22;6795;51.232;3.764;2023-02-01T10:26:54;9.20;99.90
13446;DHT22;6795;51.232;3.764;2023-02-01T10:29:30;9.30;99.90
13446;DHT22;6795;51.232;3.764;2023-02-01T10:31:59;9.50;99.90
13446;DHT22;6795;51.232;3.764;2023-02-01T10:34:32;9.60;99.90
13446;DHT22;6795;51.232;3.764;2023-02-01T10:37:16;10.00;99.90
13446;DHT22;6795;51.232;3.764;2023-02-01T10:39:46;10.30;99.90
13446;DHT22;6795;51.232;3.764;2023-02-01T10:42:19;10.40;99.90
13446;DHT22;6795;51.232;3.764;2023-02-01T10:44:49;10.40;99.90
13446;DHT22;6795;51.232;3.764;2023-02-01T10:47:19;10.40;99.90
13446;DHT22;6795;51.232;3.764;2023-02-01T10:49:56;10.50;99.90
13446;DHT22;6795;51.232;3.764;2023-02-01T10:52:36;10.40;99.90
13446;DHT22;6795;51.232;3.764;2023-02-01T10:55:26;10.30;99.90
13446;DHT22;6795;51.232;3.764;2023-02-01T10:57:56;10.00;99.90
13446;DHT22;6795;51.232;3.764;2023-02-01T11:00:26;9.80;99.90
13446;DHT22;6795;51.232;3.764;2023-02-01T11:02:55;9.80;99.90
13446;DHT22;6795;51.232;3.764;2023-02-01T11:05:26;9.70;99.90
13446;DHT22;6795;51.232;3.764;2023-02-01T11:07:55;9.70;99.90
13446;DHT22;6795;51.232;3.764;2023-02-01T11:10:37;9.70;99.90
13446;DHT22;6795;51.232;3.764;2023-02-01T11:13:14;9.80;99.90
13446;DHT22;6795;51.232;3.764;2023-02-01T11:15:44;9.90;99.90
13446;DHT22;6795;51.232;3.764;2023-02-01T11:18:18;9.80;99.90
13446;DHT22;6795;51.232;3.764;2023-02-01T11:20:48;9.70;99.90
13446;DHT22;6795;51.232;3.764;2023-02-01T11:23:23;9.70;99.90
13446;DHT22;6795;51.232;3.764;2023-02-01T11:25:55;9.70;99.90
13446;DHT22;6795;51.232;3.764;2023-02-01T11:28:29;9.80;99.90
13446;DHT22;6795;51.232;3.764;2023-02-01T11:31:00;9.90;99.90
13446;DHT22;6795;51.232;3.764;2023-02-01T11:33:31;10.00;99.90
13446;DHT22;6795;51.232;3.764;2023-02-01T11:36:08;10.10;99.90
13446;DHT22;6795;51.232;3.764;2023-02-01T11:38:38;10.00;99.90
13446;DHT22;6795;51.232;3.764;2023-02-01T11:41:14;9.90;99.90
13446;DHT22;6795;51.232;3.764;2023-02-01T11:43:55;9.90;99.90
13446;DHT22;6795;51.232;3.764;2023-02-01T11:46:28;10.10;99.90
13446;DHT22;6795;51.232;3.764;2023-02-01T11:49:15;10.00;99.90
13446;DHT22;6795;51.232;3.764;2023-02-01T11:52:12;10.20;99.90
13446;DHT22;6795;51.232;3.764;2023-02-01T11:54:56;10.30;99.90
13446;DHT22;6795;51.232;3.764;2023-02-01T11:57:43;10.40;99.90
13446;DHT22;6795;51.232;3.764;2023-02-01T12:00:30;10.60;99.90
13446;DHT22;6795;51.232;3.764;2023-02-01T12:05:59;10.60;99.90
13446;DHT22;6795;51.232;3.764;2023-02-01T12:08:58;10.70;99.90
13446;DHT22;6795;51.232;3.764;2023-02-01T12:11:43;10.70;99.90
13446;DHT22;6795;51.232;3.764;2023-02-01T12:14:41;10.60;99.90
13446;DHT22;6795;51.232;3.764;2023-02-01T12:17:38;10.60;99.90
13446;DHT22;6795;51.232;3.764;2023-02-01T12:20:28;10.80;99.90
13446;DHT22;6795;51.232;3.764;2023-02-01T12:23:12;11.10;99.90
13446;DHT22;6795;51.232;3.764;2023-02-01T12:26:01;10.90;99.90
13446;DHT22;6795;51.232;3.764;2023-02-01T12:28:53;10.80;99.90
13446;DHT22;6795;51.232;3.764;2023-02-01T12:31:54;10.90;99.90
13446;DHT22;6795;51.232;3.764;2023-02-01T12:34:44;10.90;99.90
13446;DHT22;6795;51.232;3.764;2023-02-01T12:37:23;11.10;99.90
13446;DHT22;6795;51.232;3.764;2023-02-01T12:40:00;10.90;99.90
13446;DHT22;6795;51.232;3.764;2023-02-01T12:42:36;11.20;99.90
13446;DHT22;6795;51.232;3.764;2023-02-01T12:45:13;11.30;99.90
13446;DHT22;6795;51.232;3.764;2023-02-01T12:47:49;11.20;99.90
13446;DHT22;6795;51.232;3.764;2023-02-01T12:50:22;10.80;99.90
13446;DHT22;6795;51.232;3.764;2023-02-01T12:52:55;10.80;99.90
13446;DHT22;6795;51.232;3.764;2023-02-01T12:55:34;11.00;99.90
13446;DHT22;6795;51.232;3.764;2023-02-01T12:58:11;11.20;99.90
13446;DHT22;6795;51.232;3.764;2023-02-01T13:00:44;11.40;99.90
13446;DHT22;6795;51.232;3.764;2023-02-01T13:03:20;11.40;99.90
13446;DHT22;6795;51.232;3.764;2023-02-01T13:05:55;11.50;99.90
13446;DHT22;6795;51.232;3.764;2023-02-01T13:08:26;11.20;99.90
13446;DHT22;6795;51.232;3.764;2023-02-01T13:10:59;11.30;99.90
13446;DHT22;6795;51.232;3.764;2023-02-01T13:13:35;11.20;99.90
13446;DHT22;6795;51.232;3.764;2023-02-01T13:16:13;11.10;99.90
13446;DHT22;6795;51.232;3.764;2023-02-01T13:18:49;10.90;99.90
13446;DHT22;6795;51.232;3.764;2023-02-01T13:21:23;10.90;99.90
13446;DHT22;6795;51.232;3.764;2023-02-01T13:23:52;11.20;99.90
13446;DHT22;6795;51.232;3.764;2023-02-01T13:26:21;11.80;99.90
13446;DHT22;6795;51.232;3.764;2023-02-01T13:28:55;12.00;99.90
13446;DHT22;6795;51.232;3.764;2023-02-01T13:34:42;11.40;99.90
13446;DHT22;6795;51.232;3.764;2023-02-01T13:37:27;11.30;99.90
13446;DHT22;6795;51.232;3.764;2023-02-01T13:40:09;11.60;99.90
13446;DHT22;6795;51.232;3.764;2023-02-01T13:42:48;11.30;99.90
13446;DHT22;6795;51.232;3.764;2023-02-01T13:45:21;11.20;99.90
13446;DHT22;6795;51.232;3.764;2023-02-01T13:47:54;11.10;99.90
13446;DHT22;6795;51.232;3.764;2023-02-01T13:50:26;11.00;99.90
13446;DHT22;6795;51.232;3.764;2023-02-01T13:52:57;11.10;99.90
13446;DHT22;6795;51.232;3.764;2023-02-01T13:55:30;11.10;99.90
13446;DHT22;6795;51.232;3.764;2023-02-01T13:58:06;11.00;99.90
13446;DHT22;6795;51.232;3.764;2023-02-01T14:00:41;10.80;99.90
13446;DHT22;6795;51.232;3.764;2023-02-01T15:29:10;9.20;99.90
13446;DHT22;6795;51.232;3.764;2023-02-01T15:31:40;9.20;99.90
13446;DHT22;6795;51.232;3.764;2023-02-01T15:34:10;9.20;99.90
13446;DHT22;6795;51.232;3.764;2023-02-01T15:36:39;9.20;99.90
13446;DHT22;6795;51.232;3.764;2023-02-01T15:39:23;9.10;99.90
13446;DHT22;6795;51.232;3.764;2023-02-01T15:41:55;9.10;99.90
13446;DHT22;6795;51.232;3.764;2023-02-01T15:44:32;9.10;99.90
13446;DHT22;6795;51.232;3.764;2023-02-01T15:47:07;9.20;99.90
13446;DHT22;6795;51.232;3.764;2023-02-01T15:49:38;9.10;99.90
13446;DHT22;6795;51.232;3.764;2023-02-01T15:52:21;9.10;99.90
13446;DHT22;6795;51.232;3.764;2023-02-01T15:54:52;9.10;99.90
13446;DHT22;6795;51.232;3.764;2023-02-01T15:57:27;9.10;99.90
13446;DHT22;6795;51.232;3.764;2023-02-01T16:00:02;9.10;99.90
13446;DHT22;6795;51.232;3.764;2023-02-01T16:02:34;9.10;99.90
13446;DHT22;6795;51.232;3.764;2023-02-01T16:05:24;9.20;99.90
13446;DHT22;6795;51.232;3.764;2023-02-01T16:07:58;9.10;99.90
13446;DHT22;6795;51.232;3.764;2023-02-01T16:10:37;9.10;99.90
13446;DHT22;6795;51.232;3.764;2023-02-01T16:13:05;9.10;99.90
13446;DHT22;6795;51.232;3.764;2023-02-01T16:15:35;9.00;99.90
13446;DHT22;6795;51.232;3.764;2023-02-01T16:18:05;9.00;99.90
13446;DHT22;6795;51.232;3.764;2023-02-01T16:20:34;9.10;99.90
13446;DHT22;6795;51.232;3.764;2023-02-01T16:23:03;9.10;99.90
13446;DHT22;6795;51.232;3.764;2023-02-01T16:25:32;9.10;99.90
13446;DHT22;6795;51.232;3.764;2023-02-01T16:28:00;9.00;99.90
13446;DHT22;6795;51.232;3.764;2023-02-01T16:30:29;9.00;99.90
13446;DHT22;6795;51.232;3.764;2023-02-01T16:33:00;9.00;99.90
13446;DHT22;6795;51.232;3.764;2023-02-01T16:35:31;8.90;99.90
13446;DHT22;6795;51.232;3.764;2023-02-01T16:38:03;8.90;99.90
13446;DHT22;6795;51.232;3.764;2023-02-01T16:40:35;8.90;99.90
13446;DHT22;6795;51.232;3.764;2023-02-01T16:43:11;8.80;99.90
13446;DHT22;6795;51.232;3.764;2023-02-01T16:45:40;8.80;99.90
13446;DHT22;6795;51.232;3.764;2023-02-01T16:48:19;8.80;99.90
13446;DHT22;6795;51.232;3.764;2023-02-01T16:50:51;8.70;99.90
13446;DHT22;6795;51.232;3.764;2023-02-01T16:53:21;8.80;99.90
13446;DHT22;6795;51.232;3.764;2023-02-01T16:55:50;8.80;99.90
13446;DHT22;6795;51.232;3.764;2023-02-01T16:58:20;8.80;99.90
13446;DHT22;6795;51.232;3.764;2023-02-01T17:00:48;8.80;99.90
13446;DHT22;6795;51.232;3.764;2023-02-01T17:03:20;8.80;99.90
13446;DHT22;6795;51.232;3.764;2023-02-01T17:05:50;8.70;99.90
13446;DHT22;6795;51.232;3.764;2023-02-01T17:08:27;8.80;99.90
13446;DHT22;6795;51.232;3.764;2023-02-01T17:10:58;8.70;99.90
13446;DHT22;6795;51.232;3.764;2023-02-01T17:13:27;8.70;99.90
13446;DHT22;6795;51.232;3.764;2023-02-01T17:15:58;8.80;99.90
13446;DHT22;6795;51.232;3.764;2023-02-01T17:18:32;8.80;99.90
13446;DHT22;6795;51.232;3.764;2023-02-01T17:21:02;8.80;99.90
13446;DHT22;6795;51.232;3.764;2023-02-01T17:23:32;8.90;99.90
13446;DHT22;6795;51.232;3.764;2023-02-01T17:26:00;8.80;99.90
13446;DHT22;6795;51.232;3.764;2023-02-01T17:28:29;8.90;99.90
13446;DHT22;6795;51.232;3.764;2023-02-01T17:30:58;8.90;99.90
13446;DHT22;6795;51.232;3.764;2023-02-01T17:33:31;8.90;99.90
13446;DHT22;6795;51.232;3.764;2023-02-01T17:36:04;8.90;99.90
13446;DHT22;6795;51.232;3.764;2023-02-01T17:38:33;8.90;99.90
13446;DHT22;6795;51.232;3.764;2023-02-01T17:41:03;8.90;99.90
13446;DHT22;6795;51.232;3.764;2023-02-01T17:43:32;8.90;99.90
13446;DHT22;6795;51.232;3.764;2023-02-01T17:46:05;8.90;99.90
13446;DHT22;6795;51.232;3.764;2023-02-01T17:48:35;8.90;99.90
13446;DHT22;6795;51.232;3.764;2023-02-01T17:51:04;9.00;99.90
13446;DHT22;6795;51.232;3.764;2023-02-01T17:53:33;9.00;99.90
13446;DHT22;6795;51.232;3.764;2023-02-01T17:56:02;9.10;99.90
13446;DHT22;6795;51.232;3.764;2023-02-01T17:58:30;9.10;99.90
13446;DHT22;6795;51.232;3.764;2023-02-01T18:00:59;9.20;99.90
13446;DHT22;6795;51.232;3.764;2023-02-01T18:03:30;9.20;99.90
13446;DHT22;6795;51.232;3.764;2023-02-01T18:06:00;9.20;99.90
13446;DHT22;6795;51.232;3.764;2023-02-01T18:08:30;9.20;99.90
13446;DHT22;6795;51.232;3.764;2023-02-01T18:11:00;9.20;99.90
13446;DHT22;6795;51.232;3.764;2023-02-01T18:13:31;9.30;99.90
13446;DHT22;6795;51.232;3.764;2023-02-01T18:16:00;9.30;99.90
13446;DHT22;6795;51.232;3.764;2023-02-01T18:18:30;9.30;99.90